Kraljevo, Serbia
Current Conditions -  °F | °C
As of 2:30 PM on Tuesday 21 Oct 2014 (Local Time) from LYKV Reporting Station
Scattered Clouds Scattered Clouds  
Wind Chill: 73°   Ceiling: Unl
Heat Index: 73°   Visibility: 6mi
Dew Point: 54°   Wind: 2mph
Humidity: 50%   Direction: NA
Pressure: 29.88"   Gusts: NA
Location:  43.74°N, 20.67°E
Report Text: LYKV 211230Z VRB02KT 9999 SCT040 23/12 Q1012 NOSIG
Loading
Personal Weather Stations






























Interactive Weather Map
Tropical Storm Tracking
New forecast layout! Learn more

10-Day Weather Forecast

Advertisements
Track Severe Weather on mobile